sensor_id;sensor_type;location;lat;lon;timestamp;P1;durP1;ratioP1;P2;durP2;ratioP2
53309;SDS011;39197;53.200;5.792;2022-10-16T00:01:07;9.00;;;1.10;;
53309;SDS011;39197;53.200;5.792;2022-10-16T00:03:33;8.93;;;2.20;;
53309;SDS011;39197;53.200;5.792;2022-10-16T00:05:59;5.93;;;1.33;;
53309;SDS011;39197;53.200;5.792;2022-10-16T00:08:26;8.93;;;1.60;;
53309;SDS011;39197;53.200;5.792;2022-10-16T00:10:52;5.43;;;0.90;;
53309;SDS011;39197;53.200;5.792;2022-10-16T00:13:17;7.07;;;1.23;;
53309;SDS011;39197;53.200;5.792;2022-10-16T00:15:44;6.68;;;0.70;;
53309;SDS011;39197;53.200;5.792;2022-10-16T00:18:11;7.75;;;1.20;;
53309;SDS011;39197;53.200;5.792;2022-10-16T00:20:36;6.10;;;1.05;;
53309;SDS011;39197;53.200;5.792;2022-10-16T00:23:03;6.07;;;0.77;;
53309;SDS011;39197;53.200;5.792;2022-10-16T00:25:30;7.95;;;2.15;;
53309;SDS011;39197;53.200;5.792;2022-10-16T00:27:57;5.40;;;0.50;;
53309;SDS011;39197;53.200;5.792;2022-10-16T00:30:24;4.43;;;0.88;;
53309;SDS011;39197;53.200;5.792;2022-10-16T00:32:51;6.57;;;0.60;;
53309;SDS011;39197;53.200;5.792;2022-10-16T00:35:17;5.03;;;0.70;;
53309;SDS011;39197;53.200;5.792;2022-10-16T00:37:42;4.85;;;0.40;;
53309;SDS011;39197;53.200;5.792;2022-10-16T00:40:09;5.35;;;1.10;;
53309;SDS011;39197;53.200;5.792;2022-10-16T00:42:35;3.67;;;0.57;;
53309;SDS011;39197;53.200;5.792;2022-10-16T00:45:00;5.63;;;1.25;;
53309;SDS011;39197;53.200;5.792;2022-10-16T00:50:03;5.95;;;0.82;;
53309;SDS011;39197;53.200;5.792;2022-10-16T00:52:36;4.97;;;0.93;;
53309;SDS011;39197;53.200;5.792;2022-10-16T00:55:04;7.15;;;0.70;;
53309;SDS011;39197;53.200;5.792;2022-10-16T00:57:31;6.03;;;0.70;;
53309;SDS011;39197;53.200;5.792;2022-10-16T00:59:57;6.70;;;0.60;;
53309;SDS011;39197;53.200;5.792;2022-10-16T01:02:23;2.75;;;0.47;;
53309;SDS011;39197;53.200;5.792;2022-10-16T01:04:50;7.30;;;0.70;;
53309;SDS011;39197;53.200;5.792;2022-10-16T01:12:49;4.88;;;0.50;;
53309;SDS011;39197;53.200;5.792;2022-10-16T01:18:08;2.80;;;0.40;;
53309;SDS011;39197;53.200;5.792;2022-10-16T01:29:26;3.42;;;0.65;;
53309;SDS011;39197;53.200;5.792;2022-10-16T01:34:53;5.15;;;0.65;;
53309;SDS011;39197;53.200;5.792;2022-10-16T01:37:31;3.97;;;0.47;;
53309;SDS011;39197;53.200;5.792;2022-10-16T01:40:00;2.72;;;0.55;;
53309;SDS011;39197;53.200;5.792;2022-10-16T01:42:31;2.80;;;0.40;;
53309;SDS011;39197;53.200;5.792;2022-10-16T01:45:01;2.67;;;0.40;;
53309;SDS011;39197;53.200;5.792;2022-10-16T01:47:31;3.25;;;0.30;;
53309;SDS011;39197;53.200;5.792;2022-10-16T01:49:58;4.38;;;0.60;;
53309;SDS011;39197;53.200;5.792;2022-10-16T01:52:26;6.32;;;1.35;;
53309;SDS011;39197;53.200;5.792;2022-10-16T01:54:54;3.80;;;0.32;;
53309;SDS011;39197;53.200;5.792;2022-10-16T01:57:21;3.95;;;0.40;;
53309;SDS011;39197;53.200;5.792;2022-10-16T01:59:52;9.18;;;0.90;;
53309;SDS011;39197;53.200;5.792;2022-10-16T02:02:23;2.88;;;0.63;;
53309;SDS011;39197;53.200;5.792;2022-10-16T02:04:54;2.65;;;0.60;;
53309;SDS011;39197;53.200;5.792;2022-10-16T02:07:41;4.18;;;1.10;;
53309;SDS011;39197;53.200;5.792;2022-10-16T02:10:07;6.22;;;0.85;;
53309;SDS011;39197;53.200;5.792;2022-10-16T02:12:33;5.82;;;0.88;;
53309;SDS011;39197;53.200;5.792;2022-10-16T02:15:04;5.97;;;0.85;;
53309;SDS011;39197;53.200;5.792;2022-10-16T02:17:30;6.35;;;0.85;;
53309;SDS011;39197;53.200;5.792;2022-10-16T02:19:56;3.75;;;0.88;;
53309;SDS011;39197;53.200;5.792;2022-10-16T02:22:26;3.20;;;1.45;;
53309;SDS011;39197;53.200;5.792;2022-10-16T02:25:11;3.03;;;1.00;;
53309;SDS011;39197;53.200;5.792;2022-10-16T02:28:01;9.38;;;1.38;;
53309;SDS011;39197;53.200;5.792;2022-10-16T02:30:41;5.15;;;1.45;;
53309;SDS011;39197;53.200;5.792;2022-10-16T02:33:10;8.55;;;1.40;;
53309;SDS011;39197;53.200;5.792;2022-10-16T02:35:38;10.82;;;1.70;;
53309;SDS011;39197;53.200;5.792;2022-10-16T02:38:06;4.80;;;1.00;;
53309;SDS011;39197;53.200;5.792;2022-10-16T02:40:33;5.75;;;1.83;;
53309;SDS011;39197;53.200;5.792;2022-10-16T02:42:59;5.65;;;1.05;;
53309;SDS011;39197;53.200;5.792;2022-10-16T02:45:24;4.65;;;1.02;;
53309;SDS011;39197;53.200;5.792;2022-10-16T02:47:50;3.78;;;0.88;;
53309;SDS011;39197;53.200;5.792;2022-10-16T02:50:16;6.75;;;1.25;;
53309;SDS011;39197;53.200;5.792;2022-10-16T02:52:42;4.05;;;0.73;;
53309;SDS011;39197;53.200;5.792;2022-10-16T02:55:07;2.65;;;0.85;;
53309;SDS011;39197;53.200;5.792;2022-10-16T02:57:33;6.88;;;1.38;;
53309;SDS011;39197;53.200;5.792;2022-10-16T02:59:58;3.13;;;0.77;;
53309;SDS011;39197;53.200;5.792;2022-10-16T03:02:24;8.23;;;1.42;;
53309;SDS011;39197;53.200;5.792;2022-10-16T03:04:50;3.75;;;0.80;;
53309;SDS011;39197;53.200;5.792;2022-10-16T03:07:15;4.35;;;0.88;;
53309;SDS011;39197;53.200;5.792;2022-10-16T03:09:41;4.90;;;1.58;;
53309;SDS011;39197;53.200;5.792;2022-10-16T03:12:07;2.05;;;0.47;;
53309;SDS011;39197;53.200;5.792;2022-10-16T03:14:33;4.28;;;0.93;;
53309;SDS011;39197;53.200;5.792;2022-10-16T03:16:59;4.82;;;1.17;;
53309;SDS011;39197;53.200;5.792;2022-10-16T03:19:25;4.40;;;0.63;;
53309;SDS011;39197;53.200;5.792;2022-10-16T03:21:50;2.17;;;0.60;;
53309;SDS011;39197;53.200;5.792;2022-10-16T03:24:16;6.45;;;2.08;;
53309;SDS011;39197;53.200;5.792;2022-10-16T03:26:41;1.27;;;0.40;;
53309;SDS011;39197;53.200;5.792;2022-10-16T03:29:07;3.38;;;0.50;;
53309;SDS011;39197;53.200;5.792;2022-10-16T03:31:33;1.58;;;0.35;;
53309;SDS011;39197;53.200;5.792;2022-10-16T03:33:58;5.32;;;0.77;;
53309;SDS011;39197;53.200;5.792;2022-10-16T03:36:24;3.45;;;0.85;;
53309;SDS011;39197;53.200;5.792;2022-10-16T03:38:49;2.72;;;0.70;;
53309;SDS011;39197;53.200;5.792;2022-10-16T03:41:15;6.28;;;0.68;;
53309;SDS011;39197;53.200;5.792;2022-10-16T03:43:41;3.78;;;0.47;;
53309;SDS011;39197;53.200;5.792;2022-10-16T03:46:06;2.97;;;0.60;;
53309;SDS011;39197;53.200;5.792;2022-10-16T03:48:32;4.07;;;0.63;;
53309;SDS011;39197;53.200;5.792;2022-10-16T03:50:58;2.47;;;0.50;;
53309;SDS011;39197;53.200;5.792;2022-10-16T03:53:24;2.70;;;0.50;;
53309;SDS011;39197;53.200;5.792;2022-10-16T03:55:49;5.13;;;0.57;;
53309;SDS011;39197;53.200;5.792;2022-10-16T03:58:15;1.50;;;0.43;;
53309;SDS011;39197;53.200;5.792;2022-10-16T04:00:42;3.20;;;0.60;;
53309;SDS011;39197;53.200;5.792;2022-10-16T04:03:09;4.57;;;0.60;;
53309;SDS011;39197;53.200;5.792;2022-10-16T04:05:35;4.97;;;0.80;;
53309;SDS011;39197;53.200;5.792;2022-10-16T04:08:00;7.35;;;1.35;;
53309;SDS011;39197;53.200;5.792;2022-10-16T04:10:26;3.88;;;0.63;;
53309;SDS011;39197;53.200;5.792;2022-10-16T04:12:52;3.42;;;0.82;;
53309;SDS011;39197;53.200;5.792;2022-10-16T04:15:20;4.28;;;0.70;;
53309;SDS011;39197;53.200;5.792;2022-10-16T04:17:46;3.17;;;1.02;;
53309;SDS011;39197;53.200;5.792;2022-10-16T04:20:12;3.22;;;1.50;;
53309;SDS011;39197;53.200;5.792;2022-10-16T04:22:38;5.13;;;1.15;;
53309;SDS011;39197;53.200;5.792;2022-10-16T04:25:04;1.83;;;0.47;;
53309;SDS011;39197;53.200;5.792;2022-10-16T04:27:29;3.55;;;0.60;;
53309;SDS011;39197;53.200;5.792;2022-10-16T04:29:56;4.07;;;0.82;;
53309;SDS011;39197;53.200;5.792;2022-10-16T04:32:22;4.68;;;1.00;;
53309;SDS011;39197;53.200;5.792;2022-10-16T04:34:48;3.13;;;1.38;;
53309;SDS011;39197;53.200;5.792;2022-10-16T04:37:13;4.85;;;0.88;;
53309;SDS011;39197;53.200;5.792;2022-10-16T04:39:39;3.90;;;0.70;;
53309;SDS011;39197;53.200;5.792;2022-10-16T04:42:05;7.10;;;1.30;;
53309;SDS011;39197;53.200;5.792;2022-10-16T04:44:30;6.75;;;0.90;;
53309;SDS011;39197;53.200;5.792;2022-10-16T04:46:56;5.05;;;1.02;;
53309;SDS011;39197;53.200;5.792;2022-10-16T04:49:21;5.20;;;0.90;;
53309;SDS011;39197;53.200;5.792;2022-10-16T04:51:47;6.78;;;1.25;;
53309;SDS011;39197;53.200;5.792;2022-10-16T04:54:12;4.63;;;1.23;;
53309;SDS011;39197;53.200;5.792;2022-10-16T04:56:38;3.83;;;0.85;;
53309;SDS011;39197;53.200;5.792;2022-10-16T04:59:15;4.70;;;0.82;;
53309;SDS011;39197;53.200;5.792;2022-10-16T05:01:42;3.72;;;1.00;;
53309;SDS011;39197;53.200;5.792;2022-10-16T05:04:08;2.45;;;0.73;;
53309;SDS011;39197;53.200;5.792;2022-10-16T05:06:34;2.63;;;0.60;;
53309;SDS011;39197;53.200;5.792;2022-10-16T05:09:00;2.05;;;0.50;;
53309;SDS011;39197;53.200;5.792;2022-10-16T05:11:26;3.30;;;0.50;;
53309;SDS011;39197;53.200;5.792;2022-10-16T05:13:51;3.65;;;0.60;;
53309;SDS011;39197;53.200;5.792;2022-10-16T05:16:17;5.65;;;0.70;;
53309;SDS011;39197;53.200;5.792;2022-10-16T05:18:42;3.95;;;0.90;;
53309;SDS011;39197;53.200;5.792;2022-10-16T05:21:08;4.05;;;1.00;;
53309;SDS011;39197;53.200;5.792;2022-10-16T05:23:34;5.03;;;1.05;;
53309;SDS011;39197;53.200;5.792;2022-10-16T05:25:59;3.55;;;1.10;;
53309;SDS011;39197;53.200;5.792;2022-10-16T05:28:25;3.70;;;1.05;;
53309;SDS011;39197;53.200;5.792;2022-10-16T05:30:51;3.22;;;1.42;;
53309;SDS011;39197;53.200;5.792;2022-10-16T05:33:19;4.22;;;0.93;;
53309;SDS011;39197;53.200;5.792;2022-10-16T05:35:46;6.72;;;1.98;;
53309;SDS011;39197;53.200;5.792;2022-10-16T05:38:11;6.50;;;1.63;;
53309;SDS011;39197;53.200;5.792;2022-10-16T05:40:37;7.53;;;2.35;;
53309;SDS011;39197;53.200;5.792;2022-10-16T05:43:02;6.55;;;2.67;;
53309;SDS011;39197;53.200;5.792;2022-10-16T05:45:28;4.40;;;1.55;;
53309;SDS011;39197;53.200;5.792;2022-10-16T05:47:53;4.20;;;1.77;;
53309;SDS011;39197;53.200;5.792;2022-10-16T05:50:19;7.95;;;2.00;;
53309;SDS011;39197;53.200;5.792;2022-10-16T05:52:45;6.40;;;2.00;;
53309;SDS011;39197;53.200;5.792;2022-10-16T05:55:10;5.05;;;1.75;;
53309;SDS011;39197;53.200;5.792;2022-10-16T05:57:36;6.38;;;2.05;;
53309;SDS011;39197;53.200;5.792;2022-10-16T06:00:02;8.00;;;2.08;;
53309;SDS011;39197;53.200;5.792;2022-10-16T06:02:28;6.78;;;1.65;;
53309;SDS011;39197;53.200;5.792;2022-10-16T06:04:54;5.25;;;1.88;;
53309;SDS011;39197;53.200;5.792;2022-10-16T06:07:20;9.27;;;1.67;;
53309;SDS011;39197;53.200;5.792;2022-10-16T06:09:49;4.88;;;1.50;;
53309;SDS011;39197;53.200;5.792;2022-10-16T06:12:16;6.75;;;1.92;;
53309;SDS011;39197;53.200;5.792;2022-10-16T06:14:42;5.32;;;1.83;;
53309;SDS011;39197;53.200;5.792;2022-10-16T06:17:07;6.70;;;1.52;;
53309;SDS011;39197;53.200;5.792;2022-10-16T06:19:33;7.20;;;1.50;;
53309;SDS011;39197;53.200;5.792;2022-10-16T06:21:58;6.57;;;1.80;;
53309;SDS011;39197;53.200;5.792;2022-10-16T06:24:24;10.35;;;2.38;;
53309;SDS011;39197;53.200;5.792;2022-10-16T06:26:50;5.82;;;1.63;;
53309;SDS011;39197;53.200;5.792;2022-10-16T06:29:16;8.90;;;2.05;;
53309;SDS011;39197;53.200;5.792;2022-10-16T06:31:41;5.28;;;1.30;;
53309;SDS011;39197;53.200;5.792;2022-10-16T06:34:10;6.15;;;1.20;;
53309;SDS011;39197;53.200;5.792;2022-10-16T06:36:36;6.05;;;1.30;;
53309;SDS011;39197;53.200;5.792;2022-10-16T06:39:03;6.50;;;1.05;;
53309;SDS011;39197;53.200;5.792;2022-10-16T06:41:30;5.55;;;1.60;;
53309;SDS011;39197;53.200;5.792;2022-10-16T06:43:55;7.88;;;1.05;;
53309;SDS011;39197;53.200;5.792;2022-10-16T06:46:22;6.35;;;1.20;;
53309;SDS011;39197;53.200;5.792;2022-10-16T06:48:49;6.07;;;0.95;;
53309;SDS011;39197;53.200;5.792;2022-10-16T06:51:19;5.97;;;0.93;;
53309;SDS011;39197;53.200;5.792;2022-10-16T06:53:47;4.40;;;0.77;;
53309;SDS011;39197;53.200;5.792;2022-10-16T06:56:19;8.48;;;1.40;;
53309;SDS011;39197;53.200;5.792;2022-10-16T06:58:46;2.25;;;0.70;;
53309;SDS011;39197;53.200;5.792;2022-10-16T07:01:12;7.78;;;1.20;;
53309;SDS011;39197;53.200;5.792;2022-10-16T07:03:39;5.68;;;0.60;;
53309;SDS011;39197;53.200;5.792;2022-10-16T07:06:07;3.92;;;0.95;;
53309;SDS011;39197;53.200;5.792;2022-10-16T07:08:34;7.97;;;1.23;;
53309;SDS011;39197;53.200;5.792;2022-10-16T07:11:02;4.65;;;0.98;;
53309;SDS011;39197;53.200;5.792;2022-10-16T07:13:29;5.22;;;0.70;;
53309;SDS011;39197;53.200;5.792;2022-10-16T07:15:57;11.00;;;1.15;;
53309;SDS011;39197;53.200;5.792;2022-10-16T07:18:23;6.28;;;0.95;;
53309;SDS011;39197;53.200;5.792;2022-10-16T07:20:51;4.32;;;1.33;;
53309;SDS011;39197;53.200;5.792;2022-10-16T07:23:17;5.18;;;0.98;;
53309;SDS011;39197;53.200;5.792;2022-10-16T07:25:43;9.27;;;1.00;;
53309;SDS011;39197;53.200;5.792;2022-10-16T07:28:08;4.45;;;0.82;;
53309;SDS011;39197;53.200;5.792;2022-10-16T07:30:35;4.82;;;0.93;;
53309;SDS011;39197;53.200;5.792;2022-10-16T07:33:02;6.35;;;1.02;;
53309;SDS011;39197;53.200;5.792;2022-10-16T07:35:27;8.43;;;1.60;;
53309;SDS011;39197;53.200;5.792;2022-10-16T07:37:53;4.05;;;1.10;;
53309;SDS011;39197;53.200;5.792;2022-10-16T07:40:18;7.55;;;1.10;;
53309;SDS011;39197;53.200;5.792;2022-10-16T07:42:44;7.85;;;1.17;;
53309;SDS011;39197;53.200;5.792;2022-10-16T07:45:09;5.03;;;1.30;;
53309;SDS011;39197;53.200;5.792;2022-10-16T07:47:35;8.02;;;1.48;;
53309;SDS011;39197;53.200;5.792;2022-10-16T07:50:01;6.20;;;1.30;;
53309;SDS011;39197;53.200;5.792;2022-10-16T07:52:26;7.07;;;1.52;;
53309;SDS011;39197;53.200;5.792;2022-10-16T07:54:52;6.75;;;1.83;;
53309;SDS011;39197;53.200;5.792;2022-10-16T07:57:17;1.95;;;0.68;;
53309;SDS011;39197;53.200;5.792;2022-10-16T07:59:45;7.30;;;1.73;;
53309;SDS011;39197;53.200;5.792;2022-10-16T08:02:11;3.55;;;1.00;;
53309;SDS011;39197;53.200;5.792;2022-10-16T08:04:37;7.18;;;1.50;;
53309;SDS011;39197;53.200;5.792;2022-10-16T08:07:02;9.93;;;1.73;;
53309;SDS011;39197;53.200;5.792;2022-10-16T08:09:28;3.00;;;0.90;;
53309;SDS011;39197;53.200;5.792;2022-10-16T08:11:53;4.55;;;1.08;;
53309;SDS011;39197;53.200;5.792;2022-10-16T08:14:19;8.32;;;1.00;;
53309;SDS011;39197;53.200;5.792;2022-10-16T08:16:45;6.55;;;0.98;;
53309;SDS011;39197;53.200;5.792;2022-10-16T08:19:10;5.72;;;0.95;;
53309;SDS011;39197;53.200;5.792;2022-10-16T08:21:36;4.97;;;1.00;;
53309;SDS011;39197;53.200;5.792;2022-10-16T08:24:01;6.93;;;0.98;;
53309;SDS011;39197;53.200;5.792;2022-10-16T08:26:27;6.82;;;1.20;;
53309;SDS011;39197;53.200;5.792;2022-10-16T08:28:53;4.63;;;0.85;;
53309;SDS011;39197;53.200;5.792;2022-10-16T08:31:19;4.57;;;0.98;;
53309;SDS011;39197;53.200;5.792;2022-10-16T08:33:45;6.65;;;1.55;;
53309;SDS011;39197;53.200;5.792;2022-10-16T08:36:12;11.40;;;1.58;;
53309;SDS011;39197;53.200;5.792;2022-10-16T08:38:38;5.47;;;1.02;;
53309;SDS011;39197;53.200;5.792;2022-10-16T08:41:17;8.00;;;1.13;;
53309;SDS011;39197;53.200;5.792;2022-10-16T08:44:13;8.63;;;1.10;;
53309;SDS011;39197;53.200;5.792;2022-10-16T08:49:25;6.85;;;1.08;;
53309;SDS011;39197;53.200;5.792;2022-10-16T08:51:52;6.95;;;0.80;;
53309;SDS011;39197;53.200;5.792;2022-10-16T08:54:22;6.85;;;1.35;;
53309;SDS011;39197;53.200;5.792;2022-10-16T08:56:57;6.85;;;0.98;;
53309;SDS011;39197;53.200;5.792;2022-10-16T08:59:40;6.63;;;1.20;;
53309;SDS011;39197;53.200;5.792;2022-10-16T09:05:00;7.23;;;1.00;;
53309;SDS011;39197;53.200;5.792;2022-10-16T09:10:46;7.72;;;1.25;;
53309;SDS011;39197;53.200;5.792;2022-10-16T09:13:31;8.05;;;0.93;;
53309;SDS011;39197;53.200;5.792;2022-10-16T09:18:58;6.18;;;0.85;;
53309;SDS011;39197;53.200;5.792;2022-10-16T09:21:43;9.32;;;1.15;;
53309;SDS011;39197;53.200;5.792;2022-10-16T09:24:14;10.27;;;2.08;;
53309;SDS011;39197;53.200;5.792;2022-10-16T09:26:41;8.00;;;1.13;;
53309;SDS011;39197;53.200;5.792;2022-10-16T09:29:09;7.82;;;1.20;;
53309;SDS011;39197;53.200;5.792;2022-10-16T09:31:46;6.60;;;1.00;;
53309;SDS011;39197;53.200;5.792;2022-10-16T09:37:03;8.52;;;1.65;;
53309;SDS011;39197;53.200;5.792;2022-10-16T09:39:46;11.55;;;1.42;;
53309;SDS011;39197;53.200;5.792;2022-10-16T09:42:27;7.72;;;1.20;;
53309;SDS011;39197;53.200;5.792;2022-10-16T09:44:57;12.82;;;1.30;;
53309;SDS011;39197;53.200;5.792;2022-10-16T09:47:23;9.02;;;1.83;;
53309;SDS011;39197;53.200;5.792;2022-10-16T09:49:55;14.52;;;1.65;;
53309;SDS011;39197;53.200;5.792;2022-10-16T09:52:27;9.45;;;1.92;;
53309;SDS011;39197;53.200;5.792;2022-10-16T09:54:55;9.23;;;1.90;;
53309;SDS011;39197;53.200;5.792;2022-10-16T09:57:22;7.72;;;1.42;;
53309;SDS011;39197;53.200;5.792;2022-10-16T09:59:50;8.45;;;1.40;;
53309;SDS011;39197;53.200;5.792;2022-10-16T10:02:30;10.85;;;2.15;;
53309;SDS011;39197;53.200;5.792;2022-10-16T10:04:59;9.68;;;1.40;;
53309;SDS011;39197;53.200;5.792;2022-10-16T10:07:26;15.02;;;2.47;;
53309;SDS011;39197;53.200;5.792;2022-10-16T10:09:58;15.43;;;2.35;;
53309;SDS011;39197;53.200;5.792;2022-10-16T10:12:27;10.48;;;1.65;;
53309;SDS011;39197;53.200;5.792;2022-10-16T10:14:57;14.30;;;2.30;;
53309;SDS011;39197;53.200;5.792;2022-10-16T10:17:28;15.15;;;2.55;;
53309;SDS011;39197;53.200;5.792;2022-10-16T10:22:27;16.77;;;2.70;;
53309;SDS011;39197;53.200;5.792;2022-10-16T10:30:27;16.20;;;2.65;;
53309;SDS011;39197;53.200;5.792;2022-10-16T10:38:53;10.13;;;1.40;;
53309;SDS011;39197;53.200;5.792;2022-10-16T10:41:35;14.88;;;2.25;;
53309;SDS011;39197;53.200;5.792;2022-10-16T10:47:16;19.17;;;3.65;;
53309;SDS011;39197;53.200;5.792;2022-10-16T10:52:33;11.45;;;1.63;;
53309;SDS011;39197;53.200;5.792;2022-10-16T10:58:10;10.27;;;1.83;;
53309;SDS011;39197;53.200;5.792;2022-10-16T11:06:40;6.35;;;1.00;;
53309;SDS011;39197;53.200;5.792;2022-10-16T11:09:14;10.00;;;1.77;;
53309;SDS011;39197;53.200;5.792;2022-10-16T11:12:14;11.90;;;2.17;;
53309;SDS011;39197;53.200;5.792;2022-10-16T11:17:29;4.60;;;0.80;;
53309;SDS011;39197;53.200;5.792;2022-10-16T11:20:05;8.32;;;1.15;;
53309;SDS011;39197;53.200;5.792;2022-10-16T11:22:51;8.63;;;1.17;;
53309;SDS011;39197;53.200;5.792;2022-10-16T11:25:30;9.35;;;1.45;;
53309;SDS011;39197;53.200;5.792;2022-10-16T11:28:06;5.15;;;1.02;;
53309;SDS011;39197;53.200;5.792;2022-10-16T11:33:28;8.65;;;1.58;;
53309;SDS011;39197;53.200;5.792;2022-10-16T11:36:16;10.07;;;1.50;;
53309;SDS011;39197;53.200;5.792;2022-10-16T11:38:52;10.00;;;1.77;;
53309;SDS011;39197;53.200;5.792;2022-10-16T11:41:42;9.73;;;1.65;;
53309;SDS011;39197;53.200;5.792;2022-10-16T11:46:55;8.48;;;1.10;;
53309;SDS011;39197;53.200;5.792;2022-10-16T11:49:30;5.43;;;0.98;;
53309;SDS011;39197;53.200;5.792;2022-10-16T11:52:08;12.52;;;1.90;;
53309;SDS011;39197;53.200;5.792;2022-10-16T11:54:50;11.00;;;2.17;;
53309;SDS011;39197;53.200;5.792;2022-10-16T11:57:22;8.63;;;1.92;;
53309;SDS011;39197;53.200;5.792;2022-10-16T11:59:58;10.50;;;1.52;;
53309;SDS011;39197;53.200;5.792;2022-10-16T12:05:14;11.77;;;1.15;;
53309;SDS011;39197;53.200;5.792;2022-10-16T12:08:09;11.45;;;1.40;;
53309;SDS011;39197;53.200;5.792;2022-10-16T12:10:41;7.93;;;1.23;;
53309;SDS011;39197;53.200;5.792;2022-10-16T12:13:27;10.98;;;1.65;;
53309;SDS011;39197;53.200;5.792;2022-10-16T12:16:04;9.40;;;1.00;;
53309;SDS011;39197;53.200;5.792;2022-10-16T12:18:29;11.07;;;1.92;;
53309;SDS011;39197;53.200;5.792;2022-10-16T12:20:58;8.75;;;1.33;;
53309;SDS011;39197;53.200;5.792;2022-10-16T12:23:30;12.68;;;1.90;;
53309;SDS011;39197;53.200;5.792;2022-10-16T12:25:58;8.25;;;1.60;;
53309;SDS011;39197;53.200;5.792;2022-10-16T12:28:29;8.45;;;1.27;;
53309;SDS011;39197;53.200;5.792;2022-10-16T12:33:26;7.45;;;1.13;;
53309;SDS011;39197;53.200;5.792;2022-10-16T12:35:54;10.68;;;1.15;;
53309;SDS011;39197;53.200;5.792;2022-10-16T12:38:21;8.80;;;0.95;;
53309;SDS011;39197;53.200;5.792;2022-10-16T12:46:04;12.25;;;1.00;;
53309;SDS011;39197;53.200;5.792;2022-10-16T12:48:51;14.73;;;1.77;;
53309;SDS011;39197;53.200;5.792;2022-10-16T12:54:19;16.27;;;2.03;;
53309;SDS011;39197;53.200;5.792;2022-10-16T12:59:24;11.10;;;2.00;;
53309;SDS011;39197;53.200;5.792;2022-10-16T13:16:19;12.93;;;2.17;;
53309;SDS011;39197;53.200;5.792;2022-10-16T13:30:23;11.57;;;1.73;;
53309;SDS011;39197;53.200;5.792;2022-10-16T13:32:54;10.10;;;1.35;;
53309;SDS011;39197;53.200;5.792;2022-10-16T13:35:31;9.32;;;1.50;;
53309;SDS011;39197;53.200;5.792;2022-10-16T13:38:08;6.90;;;1.30;;
53309;SDS011;39197;53.200;5.792;2022-10-16T13:40:50;8.55;;;1.40;;
53309;SDS011;39197;53.200;5.792;2022-10-16T13:43:22;7.32;;;1.15;;
53309;SDS011;39197;53.200;5.792;2022-10-16T13:46:00;13.18;;;2.60;;
53309;SDS011;39197;53.200;5.792;2022-10-16T13:48:28;11.80;;;1.77;;
53309;SDS011;39197;53.200;5.792;2022-10-16T13:51:15;7.22;;;1.25;;
53309;SDS011;39197;53.200;5.792;2022-10-16T13:53:42;9.98;;;1.00;;
53309;SDS011;39197;53.200;5.792;2022-10-16T13:56:13;5.43;;;0.80;;
53309;SDS011;39197;53.200;5.792;2022-10-16T13:58:44;7.40;;;0.73;;
53309;SDS011;39197;53.200;5.792;2022-10-16T14:01:15;10.10;;;1.80;;
53309;SDS011;39197;53.200;5.792;2022-10-16T14:03:43;8.82;;;2.08;;
53309;SDS011;39197;53.200;5.792;2022-10-16T14:06:14;11.25;;;1.60;;
53309;SDS011;39197;53.200;5.792;2022-10-16T14:08:43;9.57;;;2.45;;
53309;SDS011;39197;53.200;5.792;2022-10-16T14:11:13;9.80;;;1.60;;
53309;SDS011;39197;53.200;5.792;2022-10-16T14:13:48;9.68;;;1.85;;
53309;SDS011;39197;53.200;5.792;2022-10-16T14:16:19;8.57;;;1.77;;
53309;SDS011;39197;53.200;5.792;2022-10-16T14:18:50;12.35;;;2.22;;
53309;SDS011;39197;53.200;5.792;2022-10-16T14:21:20;10.48;;;1.10;;
53309;SDS011;39197;53.200;5.792;2022-10-16T14:23:46;10.52;;;1.70;;
53309;SDS011;39197;53.200;5.792;2022-10-16T14:26:12;9.35;;;2.55;;
53309;SDS011;39197;53.200;5.792;2022-10-16T14:28:39;7.78;;;2.25;;
53309;SDS011;39197;53.200;5.792;2022-10-16T14:33:49;8.00;;;1.35;;
53309;SDS011;39197;53.200;5.792;2022-10-16T14:36:15;3.88;;;0.60;;
53309;SDS011;39197;53.200;5.792;2022-10-16T14:41:21;7.35;;;1.40;;
53309;SDS011;39197;53.200;5.792;2022-10-16T14:43:50;9.07;;;1.67;;
53309;SDS011;39197;53.200;5.792;2022-10-16T14:46:19;11.57;;;2.40;;
53309;SDS011;39197;53.200;5.792;2022-10-16T14:48:47;9.50;;;1.73;;
53309;SDS011;39197;53.200;5.792;2022-10-16T14:51:15;10.30;;;1.63;;
53309;SDS011;39197;53.200;5.792;2022-10-16T14:53:42;10.70;;;2.33;;
53309;SDS011;39197;53.200;5.792;2022-10-16T14:56:08;12.65;;;2.15;;
53309;SDS011;39197;53.200;5.792;2022-10-16T14:58:40;14.60;;;2.10;;
53309;SDS011;39197;53.200;5.792;2022-10-16T15:01:07;9.02;;;1.50;;
53309;SDS011;39197;53.200;5.792;2022-10-16T15:03:35;12.18;;;1.17;;
53309;SDS011;39197;53.200;5.792;2022-10-16T15:06:01;12.77;;;4.63;;
53309;SDS011;39197;53.200;5.792;2022-10-16T15:08:27;12.25;;;2.97;;
53309;SDS011;39197;53.200;5.792;2022-10-16T15:10:52;16.73;;;2.58;;
53309;SDS011;39197;53.200;5.792;2022-10-16T15:13:18;8.63;;;1.40;;
53309;SDS011;39197;53.200;5.792;2022-10-16T15:15:44;14.18;;;1.75;;
53309;SDS011;39197;53.200;5.792;2022-10-16T15:18:12;10.32;;;1.83;;
53309;SDS011;39197;53.200;5.792;2022-10-16T15:20:39;10.20;;;1.58;;
53309;SDS011;39197;53.200;5.792;2022-10-16T15:23:06;8.70;;;1.77;;
53309;SDS011;39197;53.200;5.792;2022-10-16T15:28:12;16.35;;;3.05;;
53309;SDS011;39197;53.200;5.792;2022-10-16T15:30:40;15.90;;;2.25;;
53309;SDS011;39197;53.200;5.792;2022-10-16T15:33:10;13.82;;;1.98;;
53309;SDS011;39197;53.200;5.792;2022-10-16T15:35:38;15.65;;;2.65;;
53309;SDS011;39197;53.200;5.792;2022-10-16T15:38:04;9.90;;;1.30;;
53309;SDS011;39197;53.200;5.792;2022-10-16T15:40:29;14.63;;;2.30;;
53309;SDS011;39197;53.200;5.792;2022-10-16T15:42:55;16.25;;;2.03;;
53309;SDS011;39197;53.200;5.792;2022-10-16T15:45:21;9.90;;;1.10;;
53309;SDS011;39197;53.200;5.792;2022-10-16T15:47:46;17.58;;;3.00;;
53309;SDS011;39197;53.200;5.792;2022-10-16T15:50:12;14.18;;;2.17;;
53309;SDS011;39197;53.200;5.792;2022-10-16T15:52:39;10.93;;;3.42;;
53309;SDS011;39197;53.200;5.792;2022-10-16T15:55:07;12.68;;;2.67;;
53309;SDS011;39197;53.200;5.792;2022-10-16T15:57:36;19.60;;;4.60;;
53309;SDS011;39197;53.200;5.792;2022-10-16T16:00:08;14.50;;;2.58;;
53309;SDS011;39197;53.200;5.792;2022-10-16T16:02:36;12.35;;;3.35;;
53309;SDS011;39197;53.200;5.792;2022-10-16T16:05:02;12.93;;;4.25;;
53309;SDS011;39197;53.200;5.792;2022-10-16T16:07:28;17.27;;;3.70;;
53309;SDS011;39197;53.200;5.792;2022-10-16T16:09:57;25.95;;;5.85;;
53309;SDS011;39197;53.200;5.792;2022-10-16T16:12:22;13.00;;;4.15;;
53309;SDS011;39197;53.200;5.792;2022-10-16T16:14:48;20.60;;;5.75;;
53309;SDS011;39197;53.200;5.792;2022-10-16T16:17:14;22.05;;;6.97;;
53309;SDS011;39197;53.200;5.792;2022-10-16T16:19:39;16.92;;;4.22;;
53309;SDS011;39197;53.200;5.792;2022-10-16T16:22:05;14.65;;;5.60;;
53309;SDS011;39197;53.200;5.792;2022-10-16T16:24:30;13.98;;;2.63;;
53309;SDS011;39197;53.200;5.792;2022-10-16T16:26:56;13.23;;;2.03;;
53309;SDS011;39197;53.200;5.792;2022-10-16T16:29:22;20.95;;;2.80;;
53309;SDS011;39197;53.200;5.792;2022-10-16T16:31:47;15.00;;;2.70;;
53309;SDS011;39197;53.200;5.792;2022-10-16T16:34:14;14.50;;;2.08;;
53309;SDS011;39197;53.200;5.792;2022-10-16T16:36:39;15.88;;;3.30;;
53309;SDS011;39197;53.200;5.792;2022-10-16T16:39:06;16.50;;;3.72;;
53309;SDS011;39197;53.200;5.792;2022-10-16T16:41:32;15.52;;;2.38;;
53309;SDS011;39197;53.200;5.792;2022-10-16T16:44:02;18.30;;;4.22;;
53309;SDS011;39197;53.200;5.792;2022-10-16T16:46:33;16.83;;;3.40;;
53309;SDS011;39197;53.200;5.792;2022-10-16T16:48:59;18.05;;;5.13;;
53309;SDS011;39197;53.200;5.792;2022-10-16T16:51:25;16.15;;;2.97;;
53309;SDS011;39197;53.200;5.792;2022-10-16T16:53:51;12.65;;;2.55;;
53309;SDS011;39197;53.200;5.792;2022-10-16T16:56:18;21.35;;;3.72;;